createdAt,value
2022-10-19T00:01:06.721Z,99310.88
2022-10-19T00:03:35.378Z,99316.78
2022-10-19T00:06:11.956Z,99312.97
2022-10-19T00:08:38.724Z,99320.94
2022-10-19T00:11:05.467Z,99319.31
2022-10-19T00:13:32.146Z,99320.34
2022-10-19T00:15:58.805Z,99323.47
2022-10-19T00:18:25.445Z,99325.22
2022-10-19T00:20:52.047Z,99322.84
2022-10-19T00:23:18.770Z,99323.31
2022-10-19T00:25:56.014Z,99323.53
2022-10-19T00:28:22.706Z,99319.25
2022-10-19T00:33:22.526Z,99317.03
2022-10-19T00:35:51.263Z,99309.84
2022-10-19T00:38:19.727Z,99314.38
2022-10-19T00:40:47.556Z,99305.56
2022-10-19T00:43:19.888Z,99302.66
2022-10-19T00:45:46.513Z,99299.81
2022-10-19T00:48:17.122Z,99296.53
2022-10-19T00:50:44.862Z,99298.97
2022-10-19T00:53:12.259Z,99301.22
2022-10-19T00:55:39.838Z,99305.69
2022-10-19T00:58:07.192Z,99308.81
2022-10-19T01:00:34.617Z,99302.66
2022-10-19T01:03:02.950Z,99297.34
2022-10-19T01:05:30.873Z,99304.53
2022-10-19T01:07:58.041Z,99304.75
2022-10-19T01:10:39.443Z,99302.31
2022-10-19T01:13:14.612Z,99299.44
2022-10-19T01:15:54.255Z,99299.66
2022-10-19T01:18:34.896Z,99304.53
2022-10-19T01:21:06.518Z,99302.91
2022-10-19T01:24:04.760Z,99303.72
2022-10-19T01:26:46.576Z,99306.16
2022-10-19T01:29:21.740Z,99302.91
2022-10-19T01:32:09.300Z,99298.53
2022-10-19T01:34:58.828Z,99295.75
2022-10-19T01:37:42.859Z,99293.28
2022-10-19T01:40:15.762Z,99297.78
2022-10-19T01:42:46.729Z,99290.59
2022-10-19T01:45:33.822Z,99292.47
2022-10-19T01:48:10.659Z,99296.53
2022-10-19T01:50:49.118Z,99300.84
2022-10-19T01:53:18.348Z,99301.88
2022-10-19T01:55:49.176Z,99297.56
2022-10-19T01:58:21.786Z,99288.56
2022-10-19T02:00:52.548Z,99295.28
2022-10-19T02:03:20.065Z,99291.81
2022-10-19T02:05:48.592Z,99287.28
2022-10-19T02:08:22.806Z,99287.16
2022-10-19T02:10:50.110Z,99286.78
2022-10-19T02:13:18.661Z,99278.78
2022-10-19T02:15:49.336Z,99280.66
2022-10-19T02:18:19.909Z,99283.31
2022-10-19T02:20:46.945Z,99279.38
2022-10-19T02:23:17.325Z,99282.63
2022-10-19T02:25:44.047Z,99279.97
2022-10-19T02:28:10.829Z,99272.44
2022-10-19T02:30:37.829Z,99280.41
2022-10-19T02:33:04.495Z,99282.06
2022-10-19T02:35:31.234Z,99283.06
2022-10-19T02:38:02.332Z,99274.88
2022-10-19T02:40:35.808Z,99280.78
2022-10-19T02:43:10.217Z,99279.97
2022-10-19T02:45:43.137Z,99276.50
2022-10-19T02:48:20.171Z,99278.13
2022-10-19T02:50:48.152Z,99274.63
2022-10-19T02:53:16.524Z,99263.19
2022-10-19T02:55:43.373Z,99264.81
2022-10-19T02:58:10.052Z,99261.31
2022-10-19T03:00:36.837Z,99264.81
2022-10-19T03:03:03.619Z,99270.16
2022-10-19T03:05:30.251Z,99253.34
2022-10-19T03:07:56.900Z,99253.13
2022-10-19T03:10:23.879Z,99252.53
2022-10-19T03:12:51.539Z,99260.53
2022-10-19T03:15:19.306Z,99260.75
2022-10-19T03:17:45.961Z,99257.06
2022-10-19T03:20:12.598Z,99261.31
2022-10-19T03:22:39.262Z,99264.44
2022-10-19T03:25:06.493Z,99261.78
2022-10-19T03:27:33.494Z,99267.72
2022-10-19T03:30:00.306Z,99256.22
2022-10-19T03:32:27.025Z,99261.56
2022-10-19T03:34:53.639Z,99259.94
2022-10-19T03:37:20.264Z,99257.06
2022-10-19T03:39:46.853Z,99262.38
2022-10-19T03:42:13.483Z,99256.69
2022-10-19T03:44:43.089Z,99264.91
2022-10-19T03:47:09.733Z,99260.59
2022-10-19T03:49:38.093Z,99264.91
2022-10-19T03:52:07.066Z,99263.03
2022-10-19T03:54:33.682Z,99261.41
2022-10-19T03:57:00.341Z,99259.56
2022-10-19T03:59:27.086Z,99254.25
2022-10-19T04:01:53.755Z,99259.56
2022-10-19T04:04:23.256Z,99254.47
2022-10-19T04:06:51.208Z,99253.06
2022-10-19T04:09:19.818Z,99249.59
2022-10-19T04:11:47.127Z,99242.06
2022-10-19T04:14:22.888Z,99244.25
2022-10-19T04:17:00.240Z,99234.44
2022-10-19T04:19:27.110Z,99241.03
2022-10-19T04:21:53.757Z,99237.97
2022-10-19T04:24:20.509Z,99225.72
2022-10-19T04:26:50.318Z,99233.53
2022-10-19T04:29:20.136Z,99234.00
2022-10-19T04:31:49.559Z,99238.13
2022-10-19T04:34:16.674Z,99235.47
2022-10-19T04:36:43.376Z,99234.44
2022-10-19T04:39:10.198Z,99234.00
2022-10-19T04:41:38.480Z,99238.28
2022-10-19T04:44:07.413Z,99239.94
2022-10-19T04:46:34.202Z,99237.69
2022-10-19T04:49:01.171Z,99241.19
2022-10-19T04:51:28.190Z,99243.25
2022-10-19T04:53:59.401Z,99236.28
2022-10-19T04:56:27.946Z,99232.03
2022-10-19T04:58:57.600Z,99231.41
2022-10-19T05:01:25.944Z,99235.72
2022-10-19T05:06:24.340Z,99224.59
2022-10-19T05:08:51.512Z,99218.34
2022-10-19T05:11:19.100Z,99228.59
2022-10-19T05:13:46.650Z,99224.84
2022-10-19T05:16:17.888Z,99221.41
2022-10-19T05:18:48.195Z,99221.66
2022-10-19T05:21:15.261Z,99225.13
2022-10-19T05:23:42.383Z,99223.28
2022-10-19T05:26:17.453Z,99232.06
2022-10-19T05:28:56.621Z,99234.31
2022-10-19T05:31:26.526Z,99236.72
2022-10-19T05:33:53.615Z,99231.19
2022-10-19T05:36:29.738Z,99228.28
2022-10-19T05:38:57.679Z,99236.06
2022-10-19T05:41:25.750Z,99232.59
2022-10-19T05:43:54.419Z,99227.03
2022-10-19T05:46:21.180Z,99226.81
2022-10-19T05:48:48.315Z,99233.53
2022-10-19T05:51:21.030Z,99232.75
2022-10-19T05:53:48.264Z,99242.13
2022-10-19T05:56:17.944Z,99242.13
2022-10-19T05:58:44.967Z,99247.75
2022-10-19T06:01:12.171Z,99243.69
2022-10-19T06:03:38.805Z,99245.50
2022-10-19T06:06:07.135Z,99242.44
2022-10-19T06:08:34.657Z,99244.25
2022-10-19T06:11:12.759Z,99250.41
2022-10-19T06:13:41.365Z,99250.41
2022-10-19T06:16:10.076Z,99252.63
2022-10-19T06:18:37.880Z,99258.22
2022-10-19T06:21:07.093Z,99260.28
2022-10-19T06:23:35.113Z,99257.84
2022-10-19T06:26:05.173Z,99261.31
2022-10-19T06:28:31.989Z,99259.50
2022-10-19T06:30:59.362Z,99270.16
2022-10-19T06:33:27.217Z,99272.13
2022-10-19T06:35:55.023Z,99265.91
2022-10-19T06:38:21.833Z,99263.38
2022-10-19T06:40:49.208Z,99271.38
2022-10-19T06:43:15.900Z,99267.59
2022-10-19T06:45:42.554Z,99265.16
2022-10-19T06:48:09.149Z,99260.19
2022-10-19T06:50:35.858Z,99267.50
2022-10-19T06:53:02.675Z,99276.69
2022-10-19T06:55:29.303Z,99272.00
2022-10-19T06:57:55.957Z,99274.16
2022-10-19T07:00:22.539Z,99266.97
2022-10-19T07:02:49.175Z,99276.06
2022-10-19T07:05:15.945Z,99278.88
2022-10-19T07:07:42.666Z,99275.88
2022-10-19T07:10:09.520Z,99284.56
2022-10-19T07:12:36.127Z,99287.34
2022-10-19T07:15:03.651Z,99290.69
2022-10-19T07:17:30.306Z,99299.59
2022-10-19T07:19:56.948Z,99290.41
2022-10-19T07:22:27.918Z,99289.81
2022-10-19T07:24:54.870Z,99294.91
2022-10-19T07:27:21.786Z,99297.56
2022-10-19T07:29:48.421Z,99300.03
2022-10-19T07:32:15.040Z,99301.22
2022-10-19T07:34:41.692Z,99290.50
2022-10-19T07:37:08.375Z,99294.94
2022-10-19T07:39:35.243Z,99294.56
2022-10-19T07:42:01.913Z,99291.00
2022-10-19T07:44:28.613Z,99291.78
2022-10-19T07:46:55.254Z,99286.25
2022-10-19T07:49:22.441Z,99288.22
2022-10-19T07:51:54.041Z,99288.94
2022-10-19T07:54:21.471Z,99279.78
2022-10-19T07:56:48.252Z,99287.00
2022-10-19T07:59:16.986Z,99293.38
2022-10-19T08:01:45.143Z,99297.78
2022-10-19T08:06:58.414Z,99291.28
2022-10-19T08:09:51.461Z,99291.94
2022-10-19T08:12:15.097Z,99293.22
2022-10-19T08:14:42.429Z,99292.66
2022-10-19T08:17:11.716Z,99302.97
2022-10-19T08:19:43.400Z,99296.16
2022-10-19T08:22:10.771Z,99299.41
2022-10-19T08:24:37.572Z,99294.28
2022-10-19T08:27:04.190Z,99295.13
2022-10-19T08:29:31.736Z,99289.44
2022-10-19T08:31:59.245Z,99291.31
2022-10-19T08:34:26.097Z,99293.84
2022-10-19T08:36:52.772Z,99298.03
2022-10-19T08:39:19.456Z,99292.91
2022-10-19T08:44:46.263Z,99292.59
2022-10-19T08:47:38.280Z,99286.78
2022-10-19T08:50:32.311Z,99285.75
2022-10-19T08:53:03.420Z,99286.88
2022-10-19T08:55:44.646Z,99286.31
2022-10-19T08:58:40.303Z,99285.00
2022-10-19T09:01:15.215Z,99288.38
2022-10-19T09:03:55.348Z,99293.63
2022-10-19T09:06:29.529Z,99294.88
2022-10-19T09:08:57.457Z,99294.31
2022-10-19T09:11:28.130Z,99297.69
2022-10-19T09:14:10.943Z,99298.00
2022-10-19T09:16:37.736Z,99308.13
2022-10-19T09:19:16.432Z,99309.66
2022-10-19T09:21:49.588Z,99307.19
2022-10-19T09:24:23.939Z,99304.97
2022-10-19T09:26:54.435Z,99306.63
2022-10-19T09:29:29.701Z,99305.66
2022-10-19T09:32:01.945Z,99301.00
2022-10-19T09:34:32.974Z,99302.81
2022-10-19T09:37:03.006Z,99309.50
2022-10-19T09:39:31.052Z,99308.56
2022-10-19T09:42:30.206Z,99310.41
2022-10-19T09:44:59.385Z,99301.34
2022-10-19T09:47:42.550Z,99301.97
2022-10-19T09:50:25.406Z,99301.84
2022-10-19T09:52:57.695Z,99302.09
2022-10-19T09:55:25.768Z,99301.38
2022-10-19T09:58:02.017Z,99294.63
2022-10-19T10:00:33.728Z,99291.03
2022-10-19T10:03:00.785Z,99294.59
2022-10-19T10:05:37.882Z,99287.25
2022-10-19T10:08:12.294Z,99286.25
2022-10-19T10:10:44.362Z,99289.66
2022-10-19T10:13:18.451Z,99279.97
2022-10-19T10:15:49.678Z,99286.06
2022-10-19T10:18:18.776Z,99281.28
2022-10-19T10:21:00.734Z,99286.63
2022-10-19T10:23:31.995Z,99281.63
2022-10-19T10:26:00.636Z,99285.66
2022-10-19T10:28:29.810Z,99282.06
2022-10-19T10:31:07.696Z,99282.44
2022-10-19T10:33:44.707Z,99270.41
2022-10-19T10:36:12.705Z,99274.22
2022-10-19T10:38:46.019Z,99266.75
2022-10-19T10:41:16.106Z,99265.25
2022-10-19T10:43:56.023Z,99266.56
2022-10-19T10:46:29.220Z,99258.31
2022-10-19T10:48:59.036Z,99250.06
2022-10-19T10:51:33.059Z,99250.22
2022-10-19T10:54:17.074Z,99249.84
2022-10-19T10:56:54.784Z,99252.44
2022-10-19T10:59:26.574Z,99248.59
2022-10-19T11:01:59.298Z,99249.16
2022-10-19T11:04:32.225Z,99247.03
2022-10-19T11:07:05.499Z,99246.56
2022-10-19T11:09:39.233Z,99233.28
2022-10-19T11:12:11.513Z,99232.41
2022-10-19T11:14:45.820Z,99231.09
2022-10-19T11:17:19.299Z,99218.63
2022-10-19T11:19:46.375Z,99214.94
2022-10-19T11:22:34.291Z,99213.28
2022-10-19T11:25:22.118Z,99211.94
2022-10-19T11:28:11.521Z,99201.00
2022-10-19T11:30:55.690Z,99204.63
2022-10-19T11:33:45.645Z,99196.63
2022-10-19T11:36:13.321Z,99198.41
2022-10-19T11:38:52.972Z,99187.72
2022-10-19T11:41:29.841Z,99187.31
2022-10-19T11:44:13.141Z,99180.91
2022-10-19T11:46:55.150Z,99186.34
2022-10-19T11:49:21.814Z,99175.97
2022-10-19T11:51:59.556Z,99175.72
2022-10-19T11:55:01.430Z,99167.94
2022-10-19T11:57:33.618Z,99167.63
2022-10-19T12:00:37.669Z,99167.69
2022-10-19T12:03:16.238Z,99163.41
2022-10-19T12:06:01.119Z,99159.59
2022-10-19T12:08:33.903Z,99160.16
2022-10-19T12:11:00.590Z,99151.84
2022-10-19T12:13:41.037Z,99146.22
2022-10-19T12:16:10.425Z,99137.91
2022-10-19T12:18:41.615Z,99152.16
2022-10-19T12:21:25.736Z,99151.63
2022-10-19T12:23:54.343Z,99142.47
2022-10-19T12:26:22.432Z,99137.91
2022-10-19T12:29:01.381Z,99134.78
2022-10-19T12:31:29.999Z,99128.06
2022-10-19T12:34:08.210Z,99124.28
2022-10-19T12:37:10.068Z,99116.25
2022-10-19T12:40:07.170Z,99112.72
2022-10-19T12:42:51.601Z,99113.00
2022-10-19T12:45:36.620Z,99105.50
2022-10-19T12:48:19.097Z,99102.53
2022-10-19T12:51:05.578Z,99108.44
2022-10-19T12:53:40.800Z,99092.28
2022-10-19T12:56:08.494Z,99096.84
2022-10-19T12:58:41.515Z,99097.13
2022-10-19T13:01:15.140Z,99094.69
2022-10-19T13:03:45.057Z,99090.94
2022-10-19T13:06:29.280Z,99082.28
2022-10-19T13:09:00.179Z,99090.91
2022-10-19T13:11:27.048Z,99089.78
2022-10-19T13:14:24.152Z,99092.56
2022-10-19T13:17:06.076Z,99075.84
2022-10-19T13:19:32.853Z,99083.91
2022-10-19T13:22:20.390Z,99074.44
2022-10-19T13:25:23.503Z,99083.09
2022-10-19T13:27:54.789Z,99075.25
2022-10-19T13:30:36.881Z,99079.56
2022-10-19T13:33:39.777Z,99077.97
2022-10-19T13:36:08.200Z,99076.88
2022-10-19T13:38:41.829Z,99081.91
2022-10-19T13:41:25.926Z,99082.44
2022-10-19T13:44:02.762Z,99077.06
2022-10-19T13:46:29.427Z,99075.72
2022-10-19T13:48:57.046Z,99071.72
2022-10-19T13:51:54.263Z,99066.63
2022-10-19T13:54:39.250Z,99070.94
2022-10-19T13:57:41.150Z,99074.97
2022-10-19T14:00:19.785Z,99070.63
2022-10-19T14:03:11.544Z,99065.53
2022-10-19T14:06:03.051Z,99071.47
2022-10-19T14:08:43.605Z,99072.75
2022-10-19T14:11:20.607Z,99070.88
2022-10-19T14:14:08.967Z,99069.53
2022-10-19T14:16:45.747Z,99065.78
2022-10-19T14:19:18.413Z,99061.25
2022-10-19T14:21:45.075Z,99060.38
2022-10-19T14:24:21.258Z,99062.84
2022-10-19T14:26:48.003Z,99059.28
2022-10-19T14:29:14.702Z,99062.78
2022-10-19T14:31:41.832Z,99056.53
2022-10-19T14:34:09.528Z,99051.63
2022-10-19T14:36:39.642Z,99047.19
2022-10-19T14:39:07.582Z,99048.53
2022-10-19T14:41:37.495Z,99051.22
2022-10-19T14:44:39.781Z,99049.00
2022-10-19T14:47:23.516Z,99043.91
2022-10-19T14:49:50.773Z,99053.66
2022-10-19T14:52:23.536Z,99045.09
2022-10-19T14:54:54.516Z,99045.25
2022-10-19T14:57:28.049Z,99043.78
2022-10-19T15:00:00.285Z,99044.59
2022-10-19T15:02:39.536Z,99046.09
2022-10-19T15:05:15.358Z,99041.78
2022-10-19T15:07:43.716Z,99042.13
2022-10-19T15:10:29.341Z,99043.28
2022-10-19T15:13:03.075Z,99049.00
2022-10-19T15:15:32.476Z,99040.22
2022-10-19T15:18:00.211Z,99036.78
2022-10-19T15:20:28.983Z,99024.44
2022-10-19T15:22:57.152Z,99044.06
2022-10-19T15:25:32.841Z,99040.41
2022-10-19T15:28:21.189Z,99046.06
2022-10-19T15:30:59.107Z,99046.63
2022-10-19T15:33:26.409Z,99052.22
2022-10-19T15:35:53.209Z,99053.31
2022-10-19T15:38:25.000Z,99051.66
2022-10-19T15:41:00.816Z,99051.91
2022-10-19T15:43:45.776Z,99047.31
2022-10-19T15:46:12.385Z,99043.50
2022-10-19T15:48:51.134Z,99039.19
2022-10-19T15:51:35.096Z,99042.38
2022-10-19T15:54:05.454Z,99046.31
2022-10-19T15:56:35.015Z,99044.13
2022-10-19T15:59:04.147Z,99051.56
2022-10-19T16:01:32.612Z,99056.56
2022-10-19T16:03:59.806Z,99061.63
2022-10-19T16:06:28.901Z,99060.78
2022-10-19T16:08:55.866Z,99057.44
2022-10-19T16:11:23.441Z,99065.91
2022-10-19T16:13:50.783Z,99056.19
2022-10-19T16:16:23.340Z,99061.19
2022-10-19T16:18:50.420Z,99052.59
2022-10-19T16:21:18.809Z,99062.16
2022-10-19T16:23:45.724Z,99064.94
2022-10-19T16:26:15.503Z,99068.81
2022-10-19T16:28:42.895Z,99065.22
2022-10-19T16:31:10.347Z,99069.16
2022-10-19T16:33:37.113Z,99064.31
2022-10-19T16:36:05.627Z,99070.91
2022-10-19T16:38:32.596Z,99070.72
2022-10-19T16:41:01.948Z,99081.16
2022-10-19T16:43:29.372Z,99076.56
2022-10-19T16:45:56.988Z,99078.59
2022-10-19T16:48:24.358Z,99081.28
2022-10-19T16:51:17.752Z,99075.63
2022-10-19T16:53:44.465Z,99084.09
2022-10-19T16:56:13.323Z,99084.78
2022-10-19T16:58:40.753Z,99089.72
2022-10-19T17:01:10.591Z,99090.72
2022-10-19T17:03:37.691Z,99093.50
2022-10-19T17:06:05.878Z,99092.28
2022-10-19T17:08:52.781Z,99095.13
2022-10-19T17:11:21.753Z,99101.69
2022-10-19T17:13:50.401Z,99106.34
2022-10-19T17:16:19.030Z,99106.59
2022-10-19T17:18:46.716Z,99109.13
2022-10-19T17:21:16.310Z,99112.84
2022-10-19T17:23:44.054Z,99118.66
2022-10-19T17:26:11.894Z,99121.25
2022-10-19T17:28:39.337Z,99114.19
2022-10-19T17:31:09.360Z,99119.78
2022-10-19T17:33:37.082Z,99121.78
2022-10-19T17:36:09.425Z,99122.25
2022-10-19T17:38:39.182Z,99130.19
2022-10-19T17:41:12.009Z,99127.16
2022-10-19T17:43:41.102Z,99123.06
2022-10-19T17:46:09.998Z,99129.09
2022-10-19T17:48:38.902Z,99129.66
2022-10-19T17:51:07.780Z,99127.28
2022-10-19T17:53:34.930Z,99133.50
2022-10-19T17:56:07.342Z,99131.22
2022-10-19T17:58:39.035Z,99134.34
2022-10-19T18:01:08.864Z,99134.81
2022-10-19T18:03:37.150Z,99139.34
2022-10-19T18:06:23.616Z,99139.38
2022-10-19T18:08:52.830Z,99139.41
2022-10-19T18:11:22.896Z,99137.28
2022-10-19T18:13:51.563Z,99145.88
2022-10-19T18:16:21.417Z,99145.78
2022-10-19T18:18:50.238Z,99147.28
2022-10-19T18:21:20.336Z,99144.25
2022-10-19T18:23:48.436Z,99147.97
2022-10-19T18:26:19.786Z,99153.53
2022-10-19T18:28:46.670Z,99147.84
2022-10-19T18:31:19.646Z,99150.84
2022-10-19T18:33:47.696Z,99153.06
2022-10-19T18:36:15.312Z,99152.78
2022-10-19T18:38:43.166Z,99159.03
2022-10-19T18:43:43.539Z,99152.03
2022-10-19T18:46:10.292Z,99153.78
2022-10-19T18:48:38.325Z,99154.63
2022-10-19T18:51:08.206Z,99155.88
2022-10-19T18:53:35.386Z,99158.88
2022-10-19T18:56:06.066Z,99159.94
2022-10-19T18:58:33.803Z,99157.81
2022-10-19T19:01:04.381Z,99160.28
2022-10-19T19:03:31.118Z,99163.59
2022-10-19T19:06:01.518Z,99158.50
2022-10-19T19:08:28.871Z,99166.34
2022-10-19T19:10:57.073Z,99169.69
2022-10-19T19:13:24.211Z,99177.31
2022-10-19T19:15:59.511Z,99182.41
2022-10-19T19:18:26.862Z,99184.13
2022-10-19T19:20:53.596Z,99184.25
2022-10-19T19:23:20.536Z,99184.13
2022-10-19T19:25:49.425Z,99187.59
2022-10-19T19:28:16.048Z,99189.66
2022-10-19T19:30:44.729Z,99182.13
2022-10-19T19:33:12.052Z,99188.84
2022-10-19T19:35:43.197Z,99194.38
2022-10-19T19:38:10.700Z,99186.25
2022-10-19T19:40:40.338Z,99187.50
2022-10-19T19:43:07.303Z,99196.28
2022-10-19T19:45:34.150Z,99202.69
2022-10-19T19:48:01.456Z,99206.94
2022-10-19T19:50:29.042Z,99205.41
2022-10-19T19:52:56.373Z,99202.38
2022-10-19T19:55:23.041Z,99205.47
2022-10-19T19:57:50.106Z,99208.72
2022-10-19T20:00:17.259Z,99206.28
2022-10-19T20:02:43.915Z,99204.50
2022-10-19T20:05:10.515Z,99206.59
2022-10-19T20:07:37.510Z,99208.19
2022-10-19T20:10:04.659Z,99208.41
2022-10-19T20:12:31.308Z,99214.19
2022-10-19T20:14:57.973Z,99213.22
2022-10-19T20:17:25.155Z,99210.75
2022-10-19T20:19:51.838Z,99216.69
2022-10-19T20:24:45.129Z,99209.56
2022-10-19T20:27:11.852Z,99220.66
2022-10-19T20:29:38.504Z,99216.59
2022-10-19T20:32:07.798Z,99219.69
2022-10-19T20:34:35.739Z,99220.13
2022-10-19T20:37:02.488Z,99226.44
2022-10-19T20:39:29.115Z,99229.31
2022-10-19T20:41:56.992Z,99235.06
2022-10-19T20:44:23.770Z,99232.56
2022-10-19T20:46:50.572Z,99235.88
2022-10-19T20:49:17.212Z,99231.06
2022-10-19T20:51:44.050Z,99232.53
2022-10-19T20:54:12.351Z,99234.59
2022-10-19T20:56:42.517Z,99241.78
2022-10-19T20:59:13.610Z,99247.09
2022-10-19T21:01:42.030Z,99243.47
2022-10-19T21:04:11.946Z,99247.81
2022-10-19T21:06:42.383Z,99241.72
2022-10-19T21:09:10.509Z,99250.53
2022-10-19T21:11:39.671Z,99253.84
2022-10-19T21:14:11.515Z,99243.84
2022-10-19T21:16:38.736Z,99251.88
2022-10-19T21:19:08.255Z,99258.25
2022-10-19T21:21:37.839Z,99253.34
2022-10-19T21:24:07.753Z,99263.63
2022-10-19T21:26:36.117Z,99257.28
2022-10-19T21:29:04.326Z,99265.69
2022-10-19T21:31:31.317Z,99264.69
2022-10-19T21:33:58.031Z,99261.84
2022-10-19T21:36:25.997Z,99261.06
2022-10-19T21:38:52.677Z,99262.94
2022-10-19T21:41:26.198Z,99264.19
2022-10-19T21:43:54.579Z,99264.00
2022-10-19T21:46:22.836Z,99276.03
2022-10-19T21:48:50.249Z,99269.53
2022-10-19T21:51:16.824Z,99263.00
2022-10-19T21:53:44.104Z,99257.91
2022-10-19T21:56:13.951Z,99259.16
2022-10-19T21:58:52.829Z,99267.72
2022-10-19T22:01:21.737Z,99268.34
2022-10-19T22:03:48.587Z,99265.25
2022-10-19T22:06:15.556Z,99265.47
2022-10-19T22:08:46.244Z,99271.78
2022-10-19T22:11:14.065Z,99268.72
2022-10-19T22:13:41.195Z,99271.38
2022-10-19T22:16:15.647Z,99275.03
2022-10-19T22:18:42.676Z,99276.09
2022-10-19T22:21:13.228Z,99267.31
2022-10-19T22:23:40.264Z,99265.06
2022-10-19T22:26:16.899Z,99263.22
2022-10-19T22:28:44.012Z,99259.16
2022-10-19T22:31:12.122Z,99254.47
2022-10-19T22:33:39.288Z,99251.81
2022-10-19T22:36:08.145Z,99248.53
2022-10-19T22:38:35.649Z,99243.03
2022-10-19T22:41:02.280Z,99239.59
2022-10-19T22:43:28.955Z,99245.69
2022-10-19T22:45:55.567Z,99241.63
2022-10-19T22:48:22.501Z,99243.25
2022-10-19T22:50:53.398Z,99242.66
2022-10-19T22:53:22.386Z,99246.53
2022-10-19T22:55:49.185Z,99243.88
2022-10-19T22:58:16.526Z,99240.38
2022-10-19T23:00:43.191Z,99248.16
2022-10-19T23:03:10.139Z,99244.47
2022-10-19T23:05:36.828Z,99239.59
2022-10-19T23:08:03.434Z,99243.25
2022-10-19T23:10:30.168Z,99237.94
2022-10-19T23:12:56.858Z,99241.00
2022-10-19T23:15:23.502Z,99227.75
2022-10-19T23:17:50.218Z,99233.66
2022-10-19T23:20:16.920Z,99230.41
2022-10-19T23:22:43.540Z,99229.78
2022-10-19T23:25:10.153Z,99224.72
2022-10-19T23:27:37.304Z,99228.56
2022-10-19T23:30:05.036Z,99229.78
2022-10-19T23:32:31.918Z,99228.19
2022-10-19T23:34:58.551Z,99230.00
2022-10-19T23:37:25.171Z,99229.19
2022-10-19T23:39:51.811Z,99234.72
2022-10-19T23:42:18.410Z,99222.47
2022-10-19T23:44:45.015Z,99220.84
2022-10-19T23:47:11.766Z,99220.84
2022-10-19T23:49:38.409Z,99228.19
2022-10-19T23:52:05.240Z,99220.63
2022-10-19T23:54:31.830Z,99217.16
2022-10-19T23:56:58.631Z,99215.31
2022-10-19T23:59:25.244Z,99214.50
